sensor_id;sensor_type;location;lat;lon;timestamp;pressure;altitude;pressure_sealevel;temperature;humidity
3428;BME280;1727;42.624;23.406;2023-02-19T00:01:22;95140.50;;;8.83;65.79
3428;BME280;1727;42.624;23.406;2023-02-19T00:03:51;95138.22;;;8.78;65.75
3428;BME280;1727;42.624;23.406;2023-02-19T00:06:20;95140.34;;;8.73;65.79
3428;BME280;1727;42.624;23.406;2023-02-19T00:08:47;95138.50;;;8.62;66.27
3428;BME280;1727;42.624;23.406;2023-02-19T00:11:16;95127.78;;;8.54;66.64
3428;BME280;1727;42.624;23.406;2023-02-19T00:13:44;95124.06;;;8.46;66.81
3428;BME280;1727;42.624;23.406;2023-02-19T00:16:13;95133.50;;;8.35;67.04
3428;BME280;1727;42.624;23.406;2023-02-19T00:18:41;95138.00;;;8.33;67.31
3428;BME280;1727;42.624;23.406;2023-02-19T00:21:08;95123.06;;;8.23;67.85
3428;BME280;1727;42.624;23.406;2023-02-19T00:23:37;95133.97;;;8.17;68.24
3428;BME280;1727;42.624;23.406;2023-02-19T00:26:05;95118.41;;;8.15;68.41
3428;BME280;1727;42.624;23.406;2023-02-19T00:28:33;95121.50;;;8.20;67.97
3428;BME280;1727;42.624;23.406;2023-02-19T00:31:04;95131.75;;;8.23;68.02
3428;BME280;1727;42.624;23.406;2023-02-19T00:33:31;95123.56;;;8.28;67.61
3428;BME280;1727;42.624;23.406;2023-02-19T00:35:59;95118.34;;;8.28;67.59
3428;BME280;1727;42.624;23.406;2023-02-19T00:38:26;95110.72;;;8.25;67.75
3428;BME280;1727;42.624;23.406;2023-02-19T00:40:54;95120.22;;;8.26;67.72
3428;BME280;1727;42.624;23.406;2023-02-19T00:43:21;95108.00;;;8.26;67.60
3428;BME280;1727;42.624;23.406;2023-02-19T00:45:47;95106.88;;;8.18;67.52
3428;BME280;1727;42.624;23.406;2023-02-19T00:48:14;95112.09;;;8.18;67.58
3428;BME280;1727;42.624;23.406;2023-02-19T00:50:41;95118.28;;;8.17;68.29
3428;BME280;1727;42.624;23.406;2023-02-19T00:53:08;95107.00;;;8.16;68.25
3428;BME280;1727;42.624;23.406;2023-02-19T00:55:35;95088.09;;;8.13;68.04
3428;BME280;1727;42.624;23.406;2023-02-19T00:58:03;95100.63;;;8.07;68.19
3428;BME280;1727;42.624;23.406;2023-02-19T01:00:30;95093.44;;;7.98;68.58
3428;BME280;1727;42.624;23.406;2023-02-19T01:02:57;95087.66;;;7.82;69.20
3428;BME280;1727;42.624;23.406;2023-02-19T01:05:24;95099.06;;;7.81;69.32
3428;BME280;1727;42.624;23.406;2023-02-19T01:07:51;95088.91;;;7.76;69.58
3428;BME280;1727;42.624;23.406;2023-02-19T01:10:18;95092.34;;;7.77;69.60
3428;BME280;1727;42.624;23.406;2023-02-19T01:12:45;95100.84;;;7.81;70.24
3428;BME280;1727;42.624;23.406;2023-02-19T01:15:13;95101.75;;;7.80;69.49
3428;BME280;1727;42.624;23.406;2023-02-19T01:17:40;95096.44;;;7.81;69.84
3428;BME280;1727;42.624;23.406;2023-02-19T01:20:07;95083.28;;;7.83;69.70
3428;BME280;1727;42.624;23.406;2023-02-19T01:22:34;95084.84;;;7.85;69.54
3428;BME280;1727;42.624;23.406;2023-02-19T01:25:01;95084.94;;;7.84;69.29
3428;BME280;1727;42.624;23.406;2023-02-19T01:27:27;95091.50;;;7.89;68.82
3428;BME280;1727;42.624;23.406;2023-02-19T01:29:54;95097.56;;;7.90;68.98
3428;BME280;1727;42.624;23.406;2023-02-19T01:32:22;95103.84;;;7.87;69.18
3428;BME280;1727;42.624;23.406;2023-02-19T01:34:49;95118.25;;;7.80;68.87
3428;BME280;1727;42.624;23.406;2023-02-19T01:37:16;95123.81;;;7.75;69.18
3428;BME280;1727;42.624;23.406;2023-02-19T01:39:42;95124.13;;;7.71;69.13
3428;BME280;1727;42.624;23.406;2023-02-19T01:42:13;95122.47;;;7.70;68.97
3428;BME280;1727;42.624;23.406;2023-02-19T01:45:17;95127.19;;;7.65;69.35
3428;BME280;1727;42.624;23.406;2023-02-19T01:47:46;95132.84;;;7.59;69.53
3428;BME280;1727;42.624;23.406;2023-02-19T01:50:15;95144.63;;;7.52;69.67
3428;BME280;1727;42.624;23.406;2023-02-19T01:52:42;95150.78;;;7.38;70.19
3428;BME280;1727;42.624;23.406;2023-02-19T01:55:10;95157.06;;;7.35;70.33
3428;BME280;1727;42.624;23.406;2023-02-19T01:57:40;95147.47;;;7.23;71.44
3428;BME280;1727;42.624;23.406;2023-02-19T02:00:14;95152.69;;;7.23;71.77
3428;BME280;1727;42.624;23.406;2023-02-19T02:02:42;95151.75;;;7.24;71.71
3428;BME280;1727;42.624;23.406;2023-02-19T02:05:17;95145.47;;;7.27;71.75
3428;BME280;1727;42.624;23.406;2023-02-19T02:07:46;95142.75;;;7.28;70.84
3428;BME280;1727;42.624;23.406;2023-02-19T02:10:30;95131.81;;;7.23;71.54
3428;BME280;1727;42.624;23.406;2023-02-19T02:12:57;95153.53;;;7.24;72.17
3428;BME280;1727;42.624;23.406;2023-02-19T02:15:28;95145.97;;;7.19;71.46
3428;BME280;1727;42.624;23.406;2023-02-19T02:18:03;95147.25;;;7.26;71.22
3428;BME280;1727;42.624;23.406;2023-02-19T02:20:42;95154.16;;;7.27;71.21
3428;BME280;1727;42.624;23.406;2023-02-19T02:23:19;95146.72;;;7.21;70.98
3428;BME280;1727;42.624;23.406;2023-02-19T02:26:17;95146.81;;;7.20;71.37
3428;BME280;1727;42.624;23.406;2023-02-19T02:31:55;95144.81;;;6.98;72.56
3428;BME280;1727;42.624;23.406;2023-02-19T02:34:26;95130.94;;;6.97;73.37
3428;BME280;1727;42.624;23.406;2023-02-19T02:36:55;95140.34;;;7.00;73.21
3428;BME280;1727;42.624;23.406;2023-02-19T02:39:25;95136.06;;;6.99;72.96
3428;BME280;1727;42.624;23.406;2023-02-19T02:41:55;95133.16;;;7.03;73.70
3428;BME280;1727;42.624;23.406;2023-02-19T02:44:41;95132.72;;;7.09;73.26
3428;BME280;1727;42.624;23.406;2023-02-19T02:47:35;95151.50;;;7.14;73.04
3428;BME280;1727;42.624;23.406;2023-02-19T02:50:14;95143.56;;;7.16;73.13
3428;BME280;1727;42.624;23.406;2023-02-19T02:52:44;95132.09;;;7.19;72.36
3428;BME280;1727;42.624;23.406;2023-02-19T02:55:42;95131.69;;;7.12;72.45
3428;BME280;1727;42.624;23.406;2023-02-19T02:58:10;95132.19;;;7.17;73.12
3428;BME280;1727;42.624;23.406;2023-02-19T03:00:42;95131.03;;;7.21;72.70
3428;BME280;1727;42.624;23.406;2023-02-19T03:03:29;95134.22;;;7.26;71.94
3428;BME280;1727;42.624;23.406;2023-02-19T03:06:01;95129.19;;;7.23;71.87
3428;BME280;1727;42.624;23.406;2023-02-19T03:08:33;95140.47;;;7.24;72.38
3428;BME280;1727;42.624;23.406;2023-02-19T03:11:04;95146.53;;;7.24;72.02
3428;BME280;1727;42.624;23.406;2023-02-19T03:13:46;95139.09;;;7.18;72.67
3428;BME280;1727;42.624;23.406;2023-02-19T03:16:35;95143.91;;;7.24;72.54
3428;BME280;1727;42.624;23.406;2023-02-19T03:19:24;95142.88;;;7.27;71.97
3428;BME280;1727;42.624;23.406;2023-02-19T03:21:56;95152.38;;;7.28;71.95
3428;BME280;1727;42.624;23.406;2023-02-19T03:24:28;95165.31;;;7.29;72.13
3428;BME280;1727;42.624;23.406;2023-02-19T03:27:14;95154.34;;;7.24;71.64
3428;BME280;1727;42.624;23.406;2023-02-19T03:29:43;95167.31;;;7.26;71.77
3428;BME280;1727;42.624;23.406;2023-02-19T03:32:14;95176.91;;;7.25;72.41
3428;BME280;1727;42.624;23.406;2023-02-19T03:34:47;95180.25;;;7.27;71.78
3428;BME280;1727;42.624;23.406;2023-02-19T03:37:20;95178.84;;;7.22;71.89
3428;BME280;1727;42.624;23.406;2023-02-19T03:39:50;95182.81;;;7.14;72.14
3428;BME280;1727;42.624;23.406;2023-02-19T03:42:24;95179.47;;;7.12;72.04
3428;BME280;1727;42.624;23.406;2023-02-19T03:45:05;95190.75;;;7.13;72.52
3428;BME280;1727;42.624;23.406;2023-02-19T03:47:41;95193.38;;;7.13;72.63
3428;BME280;1727;42.624;23.406;2023-02-19T03:50:17;95193.56;;;7.10;72.31
3428;BME280;1727;42.624;23.406;2023-02-19T03:52:53;95191.69;;;7.12;72.31
3428;BME280;1727;42.624;23.406;2023-02-19T03:55:29;95188.34;;;7.10;72.03
3428;BME280;1727;42.624;23.406;2023-02-19T03:58:04;95197.97;;;7.09;72.21
3428;BME280;1727;42.624;23.406;2023-02-19T04:00:37;95193.25;;;7.02;72.20
3428;BME280;1727;42.624;23.406;2023-02-19T04:03:10;95197.94;;;6.97;72.46
3428;BME280;1727;42.624;23.406;2023-02-19T04:05:44;95200.72;;;6.94;72.03
3428;BME280;1727;42.624;23.406;2023-02-19T04:08:15;95198.81;;;6.83;72.77
3428;BME280;1727;42.624;23.406;2023-02-19T04:10:44;95196.84;;;6.87;72.72
3428;BME280;1727;42.624;23.406;2023-02-19T04:13:14;95204.69;;;6.87;72.20
3428;BME280;1727;42.624;23.406;2023-02-19T04:15:45;95213.44;;;6.86;72.46
3428;BME280;1727;42.624;23.406;2023-02-19T04:18:15;95209.91;;;6.87;72.88
3428;BME280;1727;42.624;23.406;2023-02-19T04:20:45;95211.56;;;6.88;72.61
3428;BME280;1727;42.624;23.406;2023-02-19T04:23:15;95217.41;;;6.91;72.24
3428;BME280;1727;42.624;23.406;2023-02-19T04:25:44;95212.88;;;6.95;72.53
3428;BME280;1727;42.624;23.406;2023-02-19T04:28:13;95216.94;;;6.99;72.26
3428;BME280;1727;42.624;23.406;2023-02-19T04:30:41;95222.25;;;6.97;72.22
3428;BME280;1727;42.624;23.406;2023-02-19T04:33:07;95220.13;;;6.90;71.83
3428;BME280;1727;42.624;23.406;2023-02-19T04:35:34;95220.09;;;6.77;71.42
3428;BME280;1727;42.624;23.406;2023-02-19T04:38:02;95221.53;;;6.68;71.71
3428;BME280;1727;42.624;23.406;2023-02-19T04:40:29;95220.97;;;6.63;72.36
3428;BME280;1727;42.624;23.406;2023-02-19T04:42:56;95213.34;;;6.60;76.42
3428;BME280;1727;42.624;23.406;2023-02-19T04:45:23;95219.13;;;6.65;80.65
3428;BME280;1727;42.624;23.406;2023-02-19T04:47:49;95219.03;;;6.67;76.68
3428;BME280;1727;42.624;23.406;2023-02-19T04:50:16;95220.22;;;6.61;75.41
3428;BME280;1727;42.624;23.406;2023-02-19T04:52:43;95211.47;;;6.62;76.09
3428;BME280;1727;42.624;23.406;2023-02-19T04:55:11;95215.66;;;6.65;76.47
3428;BME280;1727;42.624;23.406;2023-02-19T04:57:38;95215.66;;;6.65;76.56
3428;BME280;1727;42.624;23.406;2023-02-19T05:00:06;95225.06;;;6.67;76.34
3428;BME280;1727;42.624;23.406;2023-02-19T05:02:33;95228.63;;;6.66;77.22
3428;BME280;1727;42.624;23.406;2023-02-19T05:05:01;95229.25;;;6.70;75.81
3428;BME280;1727;42.624;23.406;2023-02-19T05:07:28;95227.69;;;6.67;75.78
3428;BME280;1727;42.624;23.406;2023-02-19T05:09:55;95232.34;;;6.62;75.57
3428;BME280;1727;42.624;23.406;2023-02-19T05:12:24;95228.06;;;6.61;75.47
3428;BME280;1727;42.624;23.406;2023-02-19T05:14:50;95238.47;;;6.61;75.21
3428;BME280;1727;42.624;23.406;2023-02-19T05:17:17;95241.69;;;6.52;75.36
3428;BME280;1727;42.624;23.406;2023-02-19T05:19:44;95235.09;;;6.46;74.95
3428;BME280;1727;42.624;23.406;2023-02-19T05:22:11;95239.97;;;6.38;75.36
3428;BME280;1727;42.624;23.406;2023-02-19T05:24:38;95242.81;;;6.34;75.96
3428;BME280;1727;42.624;23.406;2023-02-19T05:27:05;95244.69;;;6.32;76.35
3428;BME280;1727;42.624;23.406;2023-02-19T05:29:33;95243.66;;;6.34;76.47
3428;BME280;1727;42.624;23.406;2023-02-19T05:31:59;95245.91;;;6.40;76.45
3428;BME280;1727;42.624;23.406;2023-02-19T05:34:26;95246.34;;;6.47;76.99
3428;BME280;1727;42.624;23.406;2023-02-19T05:36:53;95248.38;;;6.56;75.82
3428;BME280;1727;42.624;23.406;2023-02-19T05:39:19;95251.16;;;6.67;75.50
3428;BME280;1727;42.624;23.406;2023-02-19T05:41:46;95259.41;;;6.74;75.30
3428;BME280;1727;42.624;23.406;2023-02-19T05:44:13;95252.06;;;6.93;74.53
3428;BME280;1727;42.624;23.406;2023-02-19T05:46:41;95252.59;;;7.25;74.36
3428;BME280;1727;42.624;23.406;2023-02-19T05:49:08;95258.50;;;7.54;73.00
3428;BME280;1727;42.624;23.406;2023-02-19T05:51:35;95254.53;;;7.74;71.48
3428;BME280;1727;42.624;23.406;2023-02-19T05:54:02;95259.22;;;7.94;70.57
3428;BME280;1727;42.624;23.406;2023-02-19T05:56:31;95260.78;;;8.22;70.23
3428;BME280;1727;42.624;23.406;2023-02-19T05:59:00;95264.06;;;8.62;68.81
3428;BME280;1727;42.624;23.406;2023-02-19T06:01:28;95256.63;;;8.93;69.87
3428;BME280;1727;42.624;23.406;2023-02-19T06:03:57;95254.31;;;9.36;71.73
3428;BME280;1727;42.624;23.406;2023-02-19T06:06:24;95264.72;;;9.84;75.66
3428;BME280;1727;42.624;23.406;2023-02-19T06:08:52;95265.00;;;10.48;70.46
3428;BME280;1727;42.624;23.406;2023-02-19T06:11:19;95262.75;;;11.09;70.67
3428;BME280;1727;42.624;23.406;2023-02-19T06:13:46;95279.03;;;11.56;63.13
3428;BME280;1727;42.624;23.406;2023-02-19T06:16:14;95271.66;;;11.82;63.78
3428;BME280;1727;42.624;23.406;2023-02-19T06:18:42;95282.94;;;12.14;68.80
3428;BME280;1727;42.624;23.406;2023-02-19T06:21:11;95280.41;;;12.33;64.85
3428;BME280;1727;42.624;23.406;2023-02-19T06:23:38;95280.59;;;12.41;58.57
3428;BME280;1727;42.624;23.406;2023-02-19T06:26:06;95275.78;;;12.47;58.69
3428;BME280;1727;42.624;23.406;2023-02-19T06:28:33;95281.53;;;12.40;59.03
3428;BME280;1727;42.624;23.406;2023-02-19T06:31:00;95282.88;;;12.25;57.62
3428;BME280;1727;42.624;23.406;2023-02-19T06:33:27;95287.69;;;12.20;61.25
3428;BME280;1727;42.624;23.406;2023-02-19T06:35:56;95282.16;;;12.23;62.09
3428;BME280;1727;42.624;23.406;2023-02-19T06:38:25;95281.75;;;12.18;60.45
3428;BME280;1727;42.624;23.406;2023-02-19T06:40:52;95282.84;;;12.16;63.20
3428;BME280;1727;42.624;23.406;2023-02-19T06:43:18;95288.97;;;12.05;60.80
3428;BME280;1727;42.624;23.406;2023-02-19T06:45:45;95284.50;;;11.96;59.96
3428;BME280;1727;42.624;23.406;2023-02-19T06:48:12;95286.94;;;11.88;58.72
3428;BME280;1727;42.624;23.406;2023-02-19T06:50:39;95281.16;;;11.94;57.86
3428;BME280;1727;42.624;23.406;2023-02-19T06:53:05;95285.66;;;12.03;57.66
3428;BME280;1727;42.624;23.406;2023-02-19T06:55:34;95295.84;;;12.17;57.82
3428;BME280;1727;42.624;23.406;2023-02-19T06:58:01;95288.41;;;12.22;57.22
3428;BME280;1727;42.624;23.406;2023-02-19T07:00:28;95294.66;;;12.31;57.27
3428;BME280;1727;42.624;23.406;2023-02-19T07:02:55;95287.41;;;12.44;56.70
3428;BME280;1727;42.624;23.406;2023-02-19T07:05:21;95290.81;;;12.65;56.91
3428;BME280;1727;42.624;23.406;2023-02-19T07:07:48;95285.34;;;12.88;57.85
3428;BME280;1727;42.624;23.406;2023-02-19T07:10:15;95295.88;;;12.97;55.92
3428;BME280;1727;42.624;23.406;2023-02-19T07:12:44;95281.25;;;13.05;55.81
3428;BME280;1727;42.624;23.406;2023-02-19T07:15:10;95289.06;;;13.25;57.09
3428;BME280;1727;42.624;23.406;2023-02-19T07:17:37;95283.41;;;13.49;55.24
3428;BME280;1727;42.624;23.406;2023-02-19T07:20:04;95290.19;;;13.71;54.12
3428;BME280;1727;42.624;23.406;2023-02-19T07:22:31;95282.00;;;13.93;53.19
3428;BME280;1727;42.624;23.406;2023-02-19T07:24:58;95273.50;;;14.09;52.94
3428;BME280;1727;42.624;23.406;2023-02-19T07:27:25;95270.72;;;14.20;51.80
3428;BME280;1727;42.624;23.406;2023-02-19T07:29:53;95268.47;;;14.25;51.20
3428;BME280;1727;42.624;23.406;2023-02-19T07:32:20;95261.53;;;14.24;51.60
3428;BME280;1727;42.624;23.406;2023-02-19T07:34:46;95254.59;;;14.14;50.70
3428;BME280;1727;42.624;23.406;2023-02-19T07:37:13;95253.63;;;14.05;50.43
3428;BME280;1727;42.624;23.406;2023-02-19T07:39:40;95254.63;;;14.04;51.14
3428;BME280;1727;42.624;23.406;2023-02-19T07:42:06;95247.31;;;13.88;50.29
3428;BME280;1727;42.624;23.406;2023-02-19T07:44:33;95249.94;;;13.88;50.67
3428;BME280;1727;42.624;23.406;2023-02-19T07:47:01;95248.81;;;13.91;51.11
3428;BME280;1727;42.624;23.406;2023-02-19T07:49:28;95249.38;;;13.94;50.75
3428;BME280;1727;42.624;23.406;2023-02-19T07:51:55;95251.03;;;13.86;50.25
3428;BME280;1727;42.624;23.406;2023-02-19T07:54:22;95253.00;;;13.74;50.56
3428;BME280;1727;42.624;23.406;2023-02-19T07:56:48;95255.66;;;13.64;50.74
3428;BME280;1727;42.624;23.406;2023-02-19T07:59:15;95254.09;;;13.52;51.51
3428;BME280;1727;42.624;23.406;2023-02-19T08:01:43;95243.84;;;13.49;50.59
3428;BME280;1727;42.624;23.406;2023-02-19T08:04:29;95248.03;;;13.61;54.79
3428;BME280;1727;42.624;23.406;2023-02-19T08:06:55;95249.94;;;13.69;50.96
3428;BME280;1727;42.624;23.406;2023-02-19T08:09:22;95252.28;;;13.82;50.63
3428;BME280;1727;42.624;23.406;2023-02-19T08:11:49;95248.81;;;13.91;54.18
3428;BME280;1727;42.624;23.406;2023-02-19T08:14:33;95240.16;;;14.08;56.89
3428;BME280;1727;42.624;23.406;2023-02-19T08:16:59;95247.25;;;14.17;49.87
3428;BME280;1727;42.624;23.406;2023-02-19T08:19:28;95249.31;;;14.23;48.65
3428;BME280;1727;42.624;23.406;2023-02-19T08:21:55;95243.84;;;14.35;53.66
3428;BME280;1727;42.624;23.406;2023-02-19T08:24:22;95245.88;;;14.41;53.00
3428;BME280;1727;42.624;23.406;2023-02-19T08:26:49;95248.69;;;14.49;48.65
3428;BME280;1727;42.624;23.406;2023-02-19T08:29:16;95257.00;;;14.54;48.84
3428;BME280;1727;42.624;23.406;2023-02-19T08:31:42;95249.97;;;14.72;48.80
3428;BME280;1727;42.624;23.406;2023-02-19T08:34:11;95251.59;;;14.83;47.89
3428;BME280;1727;42.624;23.406;2023-02-19T08:36:39;95236.28;;;14.86;46.68
3428;BME280;1727;42.624;23.406;2023-02-19T08:39:06;95243.97;;;14.98;46.60
3428;BME280;1727;42.624;23.406;2023-02-19T08:41:33;95255.88;;;15.11;46.89
3428;BME280;1727;42.624;23.406;2023-02-19T08:44:00;95261.31;;;15.28;51.26
3428;BME280;1727;42.624;23.406;2023-02-19T08:46:27;95247.06;;;15.38;46.32
3428;BME280;1727;42.624;23.406;2023-02-19T08:48:53;95244.81;;;15.43;46.38
3428;BME280;1727;42.624;23.406;2023-02-19T08:51:20;95247.75;;;15.58;45.79
3428;BME280;1727;42.624;23.406;2023-02-19T08:53:48;95243.97;;;15.78;47.70
3428;BME280;1727;42.624;23.406;2023-02-19T08:56:16;95241.63;;;15.93;52.51
3428;BME280;1727;42.624;23.406;2023-02-19T08:58:43;95235.03;;;15.97;45.21
3428;BME280;1727;42.624;23.406;2023-02-19T09:01:12;95234.25;;;16.05;45.79
3428;BME280;1727;42.624;23.406;2023-02-19T09:03:39;95231.13;;;16.09;44.56
3428;BME280;1727;42.624;23.406;2023-02-19T09:06:06;95223.16;;;16.01;44.56
3428;BME280;1727;42.624;23.406;2023-02-19T09:08:33;95220.22;;;16.13;44.00
3428;BME280;1727;42.624;23.406;2023-02-19T09:11:03;95219.59;;;16.19;44.52
3428;BME280;1727;42.624;23.406;2023-02-19T09:13:31;95206.91;;;16.22;44.24
3428;BME280;1727;42.624;23.406;2023-02-19T09:15:58;95205.94;;;16.23;44.03
3428;BME280;1727;42.624;23.406;2023-02-19T09:18:25;95200.94;;;16.20;43.67
3428;BME280;1727;42.624;23.406;2023-02-19T09:20:52;95203.31;;;16.31;43.98
3428;BME280;1727;42.624;23.406;2023-02-19T09:23:18;95199.13;;;16.21;44.43
3428;BME280;1727;42.624;23.406;2023-02-19T09:25:45;95186.50;;;16.15;44.08
3428;BME280;1727;42.624;23.406;2023-02-19T09:28:14;95188.56;;;16.03;44.51
3428;BME280;1727;42.624;23.406;2023-02-19T09:30:41;95187.13;;;16.08;44.12
3428;BME280;1727;42.624;23.406;2023-02-19T09:33:07;95184.13;;;16.03;44.25
3428;BME280;1727;42.624;23.406;2023-02-19T09:35:37;95192.00;;;16.21;44.57
3428;BME280;1727;42.624;23.406;2023-02-19T09:38:04;95193.06;;;16.36;44.41
3428;BME280;1727;42.624;23.406;2023-02-19T09:40:31;95175.88;;;16.40;44.67
3428;BME280;1727;42.624;23.406;2023-02-19T09:43:02;95186.41;;;16.24;44.90
3428;BME280;1727;42.624;23.406;2023-02-19T09:45:33;95177.63;;;16.24;46.13
3428;BME280;1727;42.624;23.406;2023-02-19T09:48:05;95183.41;;;16.19;46.30
3428;BME280;1727;42.624;23.406;2023-02-19T09:50:39;95169.91;;;16.04;46.39
3428;BME280;1727;42.624;23.406;2023-02-19T09:53:12;95172.91;;;16.09;46.57
3428;BME280;1727;42.624;23.406;2023-02-19T09:55:41;95166.66;;;16.19;46.35
3428;BME280;1727;42.624;23.406;2023-02-19T09:58:19;95155.66;;;16.39;46.66
3428;BME280;1727;42.624;23.406;2023-02-19T10:00:51;95157.25;;;16.58;45.49
3428;BME280;1727;42.624;23.406;2023-02-19T10:03:22;95150.31;;;16.65;44.73
3428;BME280;1727;42.624;23.406;2023-02-19T10:05:55;95137.47;;;16.79;46.77
3428;BME280;1727;42.624;23.406;2023-02-19T10:08:23;95131.84;;;16.82;45.68
3428;BME280;1727;42.624;23.406;2023-02-19T10:10:51;95129.03;;;16.83;47.31
3428;BME280;1727;42.624;23.406;2023-02-19T10:13:20;95129.88;;;16.84;47.01
3428;BME280;1727;42.624;23.406;2023-02-19T10:15:50;95121.91;;;16.92;48.80
3428;BME280;1727;42.624;23.406;2023-02-19T10:18:21;95114.31;;;16.97;44.18
3428;BME280;1727;42.624;23.406;2023-02-19T10:20:49;95108.03;;;17.06;44.32
3428;BME280;1727;42.624;23.406;2023-02-19T10:23:17;95100.56;;;17.10;42.82
3428;BME280;1727;42.624;23.406;2023-02-19T10:25:46;95100.56;;;17.10;43.00
3428;BME280;1727;42.624;23.406;2023-02-19T10:28:16;95090.97;;;17.17;43.57
3428;BME280;1727;42.624;23.406;2023-02-19T10:30:47;95087.16;;;17.19;43.34
3428;BME280;1727;42.624;23.406;2023-02-19T10:33:17;95093.78;;;17.15;42.92
3428;BME280;1727;42.624;23.406;2023-02-19T10:35:53;95082.66;;;17.20;42.67
3428;BME280;1727;42.624;23.406;2023-02-19T10:38:24;95070.72;;;17.24;42.44
3428;BME280;1727;42.624;23.406;2023-02-19T10:41:01;95065.59;;;17.22;43.14
3428;BME280;1727;42.624;23.406;2023-02-19T10:43:32;95063.59;;;17.24;43.93
3428;BME280;1727;42.624;23.406;2023-02-19T10:46:04;95061.59;;;17.26;42.49
3428;BME280;1727;42.624;23.406;2023-02-19T10:48:35;95060.78;;;17.26;43.54
3428;BME280;1727;42.624;23.406;2023-02-19T10:51:05;95054.31;;;17.20;42.55
3428;BME280;1727;42.624;23.406;2023-02-19T10:53:43;95041.38;;;17.25;45.13
3428;BME280;1727;42.624;23.406;2023-02-19T10:56:12;95032.78;;;17.23;41.70
3428;BME280;1727;42.624;23.406;2023-02-19T10:58:41;95033.09;;;17.28;41.55
3428;BME280;1727;42.624;23.406;2023-02-19T11:01:19;95032.59;;;17.25;43.08
3428;BME280;1727;42.624;23.406;2023-02-19T11:03:48;95025.81;;;17.22;41.95
3428;BME280;1727;42.624;23.406;2023-02-19T11:06:17;95019.69;;;17.22;42.25
3428;BME280;1727;42.624;23.406;2023-02-19T11:08:51;95015.38;;;17.21;41.53
3428;BME280;1727;42.624;23.406;2023-02-19T11:11:24;95008.59;;;17.10;41.92
3428;BME280;1727;42.624;23.406;2023-02-19T11:13:53;95005.59;;;17.05;41.82
3428;BME280;1727;42.624;23.406;2023-02-19T11:16:21;95003.94;;;17.04;42.30
3428;BME280;1727;42.624;23.406;2023-02-19T11:18:54;94999.81;;;17.10;42.39
3428;BME280;1727;42.624;23.406;2023-02-19T11:21:24;94998.47;;;17.14;41.68
3428;BME280;1727;42.624;23.406;2023-02-19T11:23:54;94994.84;;;17.07;41.76
3428;BME280;1727;42.624;23.406;2023-02-19T11:26:23;94984.72;;;17.18;41.73
3428;BME280;1727;42.624;23.406;2023-02-19T11:28:54;94987.00;;;17.29;44.19
3428;BME280;1727;42.624;23.406;2023-02-19T11:31:23;94973.22;;;17.34;42.16
3428;BME280;1727;42.624;23.406;2023-02-19T11:33:55;94969.09;;;17.31;41.95
3428;BME280;1727;42.624;23.406;2023-02-19T11:36:25;94964.44;;;17.33;42.34
3428;BME280;1727;42.624;23.406;2023-02-19T11:38:53;94964.97;;;17.37;41.80
3428;BME280;1727;42.624;23.406;2023-02-19T11:41:28;94959.97;;;17.34;40.87
3428;BME280;1727;42.624;23.406;2023-02-19T11:44:15;94957.84;;;17.38;40.90
3428;BME280;1727;42.624;23.406;2023-02-19T11:46:50;94955.50;;;17.34;41.41
3428;BME280;1727;42.624;23.406;2023-02-19T11:49:32;94950.69;;;17.30;40.83
3428;BME280;1727;42.624;23.406;2023-02-19T11:52:21;94946.72;;;17.42;40.84
3428;BME280;1727;42.624;23.406;2023-02-19T11:54:54;94942.88;;;17.45;40.27
3428;BME280;1727;42.624;23.406;2023-02-19T11:57:37;94935.41;;;17.48;42.57
3428;BME280;1727;42.624;23.406;2023-02-19T12:00:25;94936.56;;;17.46;40.89
3428;BME280;1727;42.624;23.406;2023-02-19T12:03:25;94936.28;;;17.41;40.28
3428;BME280;1727;42.624;23.406;2023-02-19T12:06:11;94925.00;;;17.39;40.46
3428;BME280;1727;42.624;23.406;2023-02-19T12:09:05;94916.59;;;17.19;40.61
3428;BME280;1727;42.624;23.406;2023-02-19T12:11:45;94908.25;;;17.30;41.17
3428;BME280;1727;42.624;23.406;2023-02-19T12:14:36;94911.75;;;17.30;40.44
3428;BME280;1727;42.624;23.406;2023-02-19T12:17:13;94918.03;;;17.29;40.58
3428;BME280;1727;42.624;23.406;2023-02-19T12:19:58;94902.31;;;17.36;41.76
3428;BME280;1727;42.624;23.406;2023-02-19T12:22:31;94889.81;;;17.45;40.59
3428;BME280;1727;42.624;23.406;2023-02-19T12:25:24;94897.47;;;17.31;41.26
3428;BME280;1727;42.624;23.406;2023-02-19T12:28:07;94887.81;;;17.47;40.57
3428;BME280;1727;42.624;23.406;2023-02-19T12:31:14;94881.13;;;17.59;40.50
3428;BME280;1727;42.624;23.406;2023-02-19T12:34:26;94875.28;;;17.63;39.60
3428;BME280;1727;42.624;23.406;2023-02-19T12:37:07;94869.56;;;17.52;39.90
3428;BME280;1727;42.624;23.406;2023-02-19T12:39:41;94863.78;;;17.48;39.44
3428;BME280;1727;42.624;23.406;2023-02-19T12:42:19;94853.00;;;17.50;39.91
3428;BME280;1727;42.624;23.406;2023-02-19T12:44:51;94850.28;;;17.58;39.58
3428;BME280;1727;42.624;23.406;2023-02-19T12:47:22;94847.09;;;17.62;39.70
3428;BME280;1727;42.624;23.406;2023-02-19T12:49:59;94845.97;;;17.57;40.09
3428;BME280;1727;42.624;23.406;2023-02-19T12:52:33;94844.97;;;17.66;40.02
3428;BME280;1727;42.624;23.406;2023-02-19T12:55:16;94837.78;;;17.75;39.78
3428;BME280;1727;42.624;23.406;2023-02-19T12:57:44;94829.47;;;17.78;39.54
3428;BME280;1727;42.624;23.406;2023-02-19T13:00:26;94819.25;;;17.67;39.60
3428;BME280;1727;42.624;23.406;2023-02-19T13:02:58;94807.94;;;17.73;39.28
3428;BME280;1727;42.624;23.406;2023-02-19T13:05:34;94810.53;;;17.81;39.35
3428;BME280;1727;42.624;23.406;2023-02-19T13:08:06;94801.50;;;17.90;39.36
3428;BME280;1727;42.624;23.406;2023-02-19T13:10:39;94796.03;;;17.91;38.84
3428;BME280;1727;42.624;23.406;2023-02-19T13:13:11;94790.03;;;17.98;38.53
3428;BME280;1727;42.624;23.406;2023-02-19T13:15:42;94793.69;;;17.97;38.60
3428;BME280;1727;42.624;23.406;2023-02-19T13:18:15;94788.88;;;17.92;38.85
3428;BME280;1727;42.624;23.406;2023-02-19T13:20:44;94790.25;;;17.88;38.65
3428;BME280;1727;42.624;23.406;2023-02-19T13:23:15;94787.59;;;17.88;38.86
3428;BME280;1727;42.624;23.406;2023-02-19T13:26:23;94780.81;;;17.85;38.90
3428;BME280;1727;42.624;23.406;2023-02-19T13:29:04;94776.56;;;17.76;39.39
3428;BME280;1727;42.624;23.406;2023-02-19T13:31:56;94770.56;;;17.82;39.22
3428;BME280;1727;42.624;23.406;2023-02-19T13:34:40;94768.47;;;17.92;39.13
3428;BME280;1727;42.624;23.406;2023-02-19T13:37:12;94757.69;;;17.94;38.71
3428;BME280;1727;42.624;23.406;2023-02-19T13:39:45;94758.09;;;17.83;38.22